createdAt,value
2023-05-24T00:01:04.487Z,91.00
2023-05-24T00:03:35.004Z,92.60
2023-05-24T00:06:03.866Z,94.20
2023-05-24T00:08:31.202Z,95.40
2023-05-24T00:10:59.010Z,96.40
2023-05-24T00:13:27.140Z,97.40
2023-05-24T00:15:54.720Z,98.50
2023-05-24T00:18:22.057Z,99.60
2023-05-24T00:20:49.999Z,99.90
2023-05-24T00:23:17.373Z,99.90
2023-05-24T00:25:44.949Z,99.90
2023-05-24T00:28:12.308Z,99.90
2023-05-24T00:30:40.039Z,99.90
2023-05-24T00:33:07.514Z,99.90
2023-05-24T00:35:35.129Z,99.90
2023-05-24T00:38:02.484Z,99.90
2023-05-24T00:40:30.772Z,99.90
2023-05-24T00:42:58.038Z,99.90
2023-05-24T00:45:25.583Z,99.90
2023-05-24T00:47:53.155Z,99.90
2023-05-24T00:50:21.956Z,99.90
2023-05-24T00:52:51.485Z,99.90
2023-05-24T00:55:19.197Z,99.90
2023-05-24T00:57:46.554Z,99.90
2023-05-24T01:00:14.623Z,99.90
2023-05-24T01:02:43.326Z,99.90
2023-05-24T01:05:13.678Z,99.90
2023-05-24T01:08:02.790Z,99.90
2023-05-24T01:10:56.946Z,99.90
2023-05-24T01:13:30.073Z,99.90
2023-05-24T01:16:06.254Z,99.90
2023-05-24T01:18:57.839Z,99.90
2023-05-24T01:21:56.363Z,99.90
2023-05-24T01:24:49.959Z,99.90
2023-05-24T01:27:18.310Z,99.90
2023-05-24T01:29:53.256Z,99.90
2023-05-24T01:32:21.463Z,99.90
2023-05-24T01:34:48.745Z,99.90
2023-05-24T01:37:17.306Z,99.90
2023-05-24T01:39:44.920Z,99.90
2023-05-24T01:42:12.384Z,99.90
2023-05-24T01:44:42.825Z,99.90
2023-05-24T01:47:25.883Z,99.90
2023-05-24T01:49:57.222Z,99.90
2023-05-24T01:52:31.778Z,99.90
2023-05-24T01:55:01.002Z,99.90
2023-05-24T01:57:29.252Z,99.90
2023-05-24T01:59:58.429Z,99.90
2023-05-24T02:02:26.250Z,99.90
2023-05-24T02:04:53.987Z,99.90
2023-05-24T02:07:21.556Z,99.90
2023-05-24T02:09:49.022Z,99.90
2023-05-24T02:12:16.680Z,99.90
2023-05-24T02:14:43.967Z,99.90
2023-05-24T02:17:11.589Z,99.90
2023-05-24T02:19:38.900Z,99.90
2023-05-24T02:22:07.697Z,99.90
2023-05-24T02:24:35.047Z,99.90
2023-05-24T02:27:03.044Z,99.90
2023-05-24T02:29:30.670Z,99.90
2023-05-24T02:31:58.425Z,99.90
2023-05-24T02:34:25.965Z,99.90
2023-05-24T02:36:56.716Z,99.90
2023-05-24T02:39:24.024Z,99.90
2023-05-24T02:41:52.078Z,99.90
2023-05-24T02:44:19.499Z,99.90
2023-05-24T02:46:47.132Z,99.90
2023-05-24T02:49:14.593Z,99.90
2023-05-24T02:51:42.214Z,99.90
2023-05-24T02:54:09.488Z,99.90
2023-05-24T02:56:37.643Z,99.90
2023-05-24T02:59:05.211Z,99.90
2023-05-24T03:01:34.486Z,99.90
2023-05-24T03:04:03.412Z,99.90
2023-05-24T03:06:31.583Z,99.90
2023-05-24T03:08:59.339Z,99.90
2023-05-24T03:11:27.516Z,99.90
2023-05-24T03:13:54.827Z,99.90
2023-05-24T03:16:23.690Z,99.90
2023-05-24T03:18:52.048Z,99.90
2023-05-24T03:21:21.094Z,99.90
2023-05-24T03:23:48.965Z,99.90
2023-05-24T03:26:18.666Z,99.90
2023-05-24T03:28:47.118Z,99.90
2023-05-24T03:31:14.932Z,99.90
2023-05-24T03:33:42.332Z,99.90
2023-05-24T03:36:10.106Z,99.90
2023-05-24T03:38:37.700Z,99.90
2023-05-24T03:41:05.334Z,99.90
2023-05-24T03:43:34.065Z,99.90
2023-05-24T03:46:03.988Z,99.90
2023-05-24T03:48:31.388Z,99.90
2023-05-24T03:50:59.770Z,99.90
2023-05-24T03:53:27.139Z,99.90
2023-05-24T03:55:55.730Z,99.90
2023-05-24T03:58:23.028Z,99.90
2023-05-24T04:00:52.378Z,99.90
2023-05-24T04:03:20.230Z,99.90
2023-05-24T04:05:48.585Z,99.90
2023-05-24T04:08:16.564Z,99.90
2023-05-24T04:10:44.447Z,99.90
2023-05-24T04:13:12.905Z,99.90
2023-05-24T04:15:40.714Z,99.90
2023-05-24T04:18:09.790Z,99.90
2023-05-24T04:20:38.552Z,99.90
2023-05-24T04:23:05.944Z,99.90
2023-05-24T04:25:33.716Z,99.90
2023-05-24T04:28:03.969Z,99.90
2023-05-24T04:30:33.283Z,99.90
2023-05-24T04:33:00.721Z,99.90
2023-05-24T04:35:30.331Z,99.90
2023-05-24T04:37:57.706Z,99.90
2023-05-24T04:40:25.327Z,99.90
2023-05-24T04:42:52.590Z,99.90
2023-05-24T04:45:20.154Z,99.90
2023-05-24T04:47:47.503Z,99.90
2023-05-24T04:50:15.172Z,99.90
2023-05-24T04:52:42.520Z,99.90
2023-05-24T04:55:10.469Z,99.90
2023-05-24T04:57:37.783Z,99.90
2023-05-24T05:00:07.516Z,99.90
2023-05-24T05:02:35.023Z,99.90
2023-05-24T05:05:02.641Z,99.90
2023-05-24T05:07:29.991Z,99.90
2023-05-24T05:09:57.527Z,99.90
2023-05-24T05:12:24.759Z,99.90
2023-05-24T05:14:52.693Z,99.90
2023-05-24T05:17:19.958Z,99.90
2023-05-24T05:19:47.834Z,99.90
2023-05-24T05:22:15.271Z,99.90
2023-05-24T05:24:42.835Z,99.90
2023-05-24T05:27:10.169Z,99.90
2023-05-24T05:29:37.659Z,99.90
2023-05-24T05:32:05.286Z,99.90
2023-05-24T05:34:33.155Z,99.90
2023-05-24T05:37:00.453Z,99.90
2023-05-24T05:39:28.084Z,99.90
2023-05-24T05:41:55.433Z,99.90
2023-05-24T05:44:23.081Z,99.90
2023-05-24T05:46:50.319Z,99.90
2023-05-24T05:49:18.716Z,99.90
2023-05-24T05:51:47.046Z,99.90
2023-05-24T05:54:15.713Z,99.90
2023-05-24T05:56:48.005Z,99.90
2023-05-24T05:59:16.042Z,99.90
2023-05-24T06:01:47.111Z,99.90
2023-05-24T06:04:15.951Z,99.90
2023-05-24T06:06:45.320Z,99.90
2023-05-24T06:09:13.161Z,99.90
2023-05-24T06:11:44.732Z,99.90
2023-05-24T06:14:19.822Z,99.90
2023-05-24T06:16:48.003Z,99.90
2023-05-24T06:19:16.681Z,99.90
2023-05-24T06:21:48.297Z,99.90
2023-05-24T06:24:22.744Z,99.90
2023-05-24T06:26:52.316Z,99.90
2023-05-24T06:29:21.853Z,99.90
2023-05-24T06:31:50.524Z,99.90
2023-05-24T06:34:21.596Z,99.90
2023-05-24T06:36:51.118Z,99.90
2023-05-24T06:39:19.334Z,99.90
2023-05-24T06:41:47.358Z,99.90
2023-05-24T06:44:16.456Z,99.90
2023-05-24T06:46:43.915Z,99.90
2023-05-24T06:49:12.907Z,99.90
2023-05-24T06:51:40.369Z,99.90
2023-05-24T06:54:07.973Z,99.90
2023-05-24T06:56:35.316Z,99.90
2023-05-24T06:59:03.080Z,99.90
2023-05-24T07:01:30.600Z,99.90
2023-05-24T07:03:59.296Z,99.90
2023-05-24T07:06:27.150Z,99.90
2023-05-24T07:08:54.863Z,99.90
2023-05-24T07:11:22.814Z,99.90
2023-05-24T07:13:50.672Z,99.90
2023-05-24T07:16:18.132Z,99.90
2023-05-24T07:18:46.186Z,99.90
2023-05-24T07:21:13.460Z,99.90
2023-05-24T07:23:41.127Z,99.90
2023-05-24T07:26:09.163Z,99.90
2023-05-24T07:28:38.845Z,99.90
2023-05-24T07:31:09.312Z,99.90
2023-05-24T07:33:40.542Z,99.90
2023-05-24T07:36:08.900Z,99.90
2023-05-24T07:38:36.626Z,99.90
2023-05-24T07:41:04.829Z,99.90
2023-05-24T07:43:32.563Z,99.90
2023-05-24T07:45:59.894Z,99.90
2023-05-24T07:48:28.333Z,99.90
2023-05-24T07:50:55.562Z,99.90
2023-05-24T07:53:23.465Z,99.90
2023-05-24T07:55:51.755Z,99.90
2023-05-24T07:58:19.592Z,99.90
2023-05-24T08:00:46.948Z,99.90
2023-05-24T08:03:14.858Z,99.90
2023-05-24T08:05:42.664Z,99.90
2023-05-24T08:08:10.581Z,99.90
2023-05-24T08:10:38.108Z,99.90
2023-05-24T08:13:05.765Z,99.90
2023-05-24T08:15:33.394Z,99.90
2023-05-24T08:18:00.911Z,99.90
2023-05-24T08:20:28.621Z,99.90
2023-05-24T08:22:56.557Z,99.90
2023-05-24T08:25:24.467Z,99.90
2023-05-24T08:27:52.300Z,99.90
2023-05-24T08:30:20.148Z,99.90
2023-05-24T08:32:47.712Z,99.90
2023-05-24T08:35:20.128Z,99.90
2023-05-24T08:37:49.733Z,99.90
2023-05-24T08:40:18.022Z,99.90
2023-05-24T08:42:46.720Z,99.90
2023-05-24T08:45:15.862Z,99.90
2023-05-24T08:47:43.684Z,99.90
2023-05-24T08:50:13.564Z,99.90
2023-05-24T08:52:42.056Z,99.90
2023-05-24T08:55:11.187Z,99.90
2023-05-24T08:57:41.246Z,99.90
2023-05-24T09:00:14.092Z,99.90
2023-05-24T09:02:43.783Z,99.90
2023-05-24T09:05:16.762Z,99.90
2023-05-24T09:07:45.473Z,99.90
2023-05-24T09:10:14.025Z,99.90
2023-05-24T09:12:48.685Z,99.90
2023-05-24T09:15:16.201Z,99.90
2023-05-24T09:17:43.663Z,99.80
2023-05-24T09:20:12.818Z,99.90
2023-05-24T09:22:42.700Z,99.90
2023-05-24T09:25:13.468Z,99.90
2023-05-24T09:27:41.753Z,99.90
2023-05-24T09:30:11.097Z,99.90
2023-05-24T09:32:39.324Z,99.90
2023-05-24T09:35:10.597Z,99.90
2023-05-24T09:37:41.960Z,99.90
2023-05-24T09:40:20.189Z,99.90
2023-05-24T09:42:51.409Z,99.90
2023-05-24T09:45:19.202Z,99.90
2023-05-24T09:47:46.830Z,99.90
2023-05-24T09:50:17.446Z,99.90
2023-05-24T09:52:45.414Z,99.90
2023-05-24T09:55:16.693Z,99.90
2023-05-24T09:57:45.268Z,99.90
2023-05-24T10:00:16.723Z,99.90
2023-05-24T10:02:53.136Z,99.90
2023-05-24T10:05:22.053Z,99.70
2023-05-24T10:07:49.517Z,98.50
2023-05-24T10:10:17.240Z,99.90
2023-05-24T10:12:47.069Z,99.10
2023-05-24T10:15:15.685Z,98.60
2023-05-24T10:17:43.230Z,99.20
2023-05-24T10:22:48.239Z,98.20
2023-05-24T10:25:21.696Z,95.20
2023-05-24T10:27:57.598Z,97.20
2023-05-24T10:30:42.728Z,96.40
2023-05-24T10:33:13.104Z,97.30
2023-05-24T10:35:43.142Z,96.90
2023-05-24T10:38:10.897Z,98.00
2023-05-24T10:40:42.879Z,98.40
2023-05-24T10:43:11.676Z,98.70
2023-05-24T10:45:41.047Z,98.10
2023-05-24T10:48:10.564Z,98.90
2023-05-24T10:50:38.367Z,98.90
2023-05-24T10:53:16.987Z,98.60
2023-05-24T10:55:57.414Z,99.30
2023-05-24T10:58:59.760Z,96.70
2023-05-24T11:01:28.902Z,96.80
2023-05-24T11:04:26.578Z,96.50
2023-05-24T11:07:01.543Z,95.00
2023-05-24T11:09:29.842Z,96.40
2023-05-24T11:12:04.148Z,98.00
2023-05-24T11:14:32.504Z,98.30
2023-05-24T11:17:01.030Z,98.10
2023-05-24T11:19:34.437Z,97.60
2023-05-24T11:22:06.274Z,98.60
2023-05-24T11:24:34.976Z,97.00
2023-05-24T11:27:03.643Z,96.00
2023-05-24T11:29:31.170Z,96.90
2023-05-24T11:32:06.382Z,96.00
2023-05-24T11:34:34.353Z,95.90
2023-05-24T11:37:03.411Z,95.70
2023-05-24T11:39:36.730Z,94.30
2023-05-24T11:42:06.440Z,94.40
2023-05-24T11:44:35.480Z,94.50
2023-05-24T11:47:05.627Z,93.50
2023-05-24T11:49:32.994Z,94.20
2023-05-24T11:52:01.726Z,94.40
2023-05-24T11:54:29.543Z,93.70
2023-05-24T11:56:57.920Z,93.70
2023-05-24T11:59:28.044Z,94.00
2023-05-24T12:02:00.472Z,95.50
2023-05-24T12:04:28.785Z,95.60
2023-05-24T12:06:57.526Z,96.40
2023-05-24T12:09:25.528Z,96.70
2023-05-24T12:11:53.836Z,96.40
2023-05-24T12:14:28.585Z,96.10
2023-05-24T12:16:57.472Z,95.30
2023-05-24T12:21:57.833Z,96.60
2023-05-24T12:24:26.562Z,96.80
2023-05-24T12:27:01.811Z,96.90
2023-05-24T12:29:38.720Z,97.00
2023-05-24T12:32:12.365Z,97.00
2023-05-24T12:34:44.437Z,98.00
2023-05-24T12:37:13.816Z,97.60
2023-05-24T12:39:43.046Z,97.70
2023-05-24T12:42:14.995Z,98.20
2023-05-24T12:44:43.028Z,99.00
2023-05-24T12:47:11.735Z,99.90
2023-05-24T12:49:39.335Z,99.90
2023-05-24T12:52:07.417Z,99.90
2023-05-24T12:54:35.269Z,99.90
2023-05-24T12:57:03.711Z,99.90
2023-05-24T12:59:31.234Z,99.90
2023-05-24T13:01:59.218Z,99.40
2023-05-24T13:04:27.697Z,99.90
2023-05-24T13:06:55.865Z,99.90
2023-05-24T13:09:23.930Z,99.70
2023-05-24T13:11:52.459Z,99.60
2023-05-24T13:14:20.566Z,99.90
2023-05-24T13:16:49.067Z,99.90
2023-05-24T13:19:17.178Z,99.90
2023-05-24T13:21:45.455Z,99.90
2023-05-24T13:24:15.796Z,99.90
2023-05-24T13:26:44.027Z,99.90
2023-05-24T13:31:42.707Z,99.90
2023-05-24T13:34:13.264Z,99.90
2023-05-24T13:36:42.993Z,99.90
2023-05-24T13:41:42.227Z,99.90
2023-05-24T13:46:57.719Z,98.90
2023-05-24T13:47:40.612Z,98.40
2023-05-24T13:49:25.152Z,99.90
2023-05-24T13:51:56.455Z,99.90
2023-05-24T13:54:26.408Z,99.90
2023-05-24T13:56:57.413Z,99.90
2023-05-24T13:59:24.947Z,99.90
2023-05-24T14:01:52.983Z,99.90
2023-05-24T14:04:20.594Z,99.90
2023-05-24T14:06:48.417Z,99.00
2023-05-24T14:09:16.162Z,99.80
2023-05-24T14:11:45.477Z,99.90
2023-05-24T14:16:43.600Z,99.90
2023-05-24T14:19:10.990Z,99.90
2023-05-24T14:21:38.869Z,99.90
2023-05-24T14:24:06.520Z,99.90
2023-05-24T14:26:34.289Z,99.90
2023-05-24T14:29:02.223Z,99.90
2023-05-24T14:31:30.074Z,99.90
2023-05-24T14:33:57.492Z,99.90
2023-05-24T14:36:25.194Z,99.90
2023-05-24T14:38:52.548Z,99.90
2023-05-24T14:41:20.476Z,99.90
2023-05-24T14:43:47.994Z,99.90
2023-05-24T14:46:15.896Z,99.90
2023-05-24T14:48:43.333Z,99.90
2023-05-24T14:51:10.994Z,99.90
2023-05-24T14:53:38.246Z,99.90
2023-05-24T14:56:09.043Z,99.90
2023-05-24T14:58:36.476Z,99.90
2023-05-24T15:01:04.408Z,99.90
2023-05-24T15:03:32.212Z,99.90
2023-05-24T15:06:00.467Z,99.90
2023-05-24T15:08:28.408Z,99.90
2023-05-24T15:10:58.751Z,99.90
2023-05-24T15:13:26.592Z,99.90
2023-05-24T15:15:56.563Z,99.90
2023-05-24T15:18:25.654Z,99.90
2023-05-24T15:20:53.199Z,99.90
2023-05-24T15:23:21.613Z,99.90
2023-05-24T15:25:49.147Z,99.90
2023-05-24T15:28:18.432Z,99.90
2023-05-24T15:30:47.187Z,99.90
2023-05-24T15:33:17.008Z,99.90
2023-05-24T15:35:44.593Z,99.90
2023-05-24T15:38:12.775Z,99.90
2023-05-24T15:40:42.787Z,99.90
2023-05-24T15:43:11.120Z,99.90
2023-05-24T15:45:38.508Z,99.90
2023-05-24T15:48:06.147Z,99.90
2023-05-24T15:50:57.322Z,99.90
2023-05-24T15:53:21.864Z,99.90
2023-05-24T15:55:49.462Z,99.90
2023-05-24T15:58:17.214Z,99.90
2023-05-24T16:00:44.752Z,99.90
2023-05-24T16:03:15.663Z,99.90
2023-05-24T16:05:43.603Z,99.90
2023-05-24T16:08:11.228Z,99.90
2023-05-24T16:10:38.725Z,99.90
2023-05-24T16:13:06.822Z,99.90
2023-05-24T16:15:36.100Z,99.90
2023-05-24T16:18:08.021Z,99.90
2023-05-24T16:20:35.488Z,99.90
2023-05-24T16:23:03.751Z,99.90
2023-05-24T16:25:31.321Z,99.90
2023-05-24T16:28:00.347Z,99.90
2023-05-24T16:30:27.969Z,99.90
2023-05-24T16:32:55.781Z,99.90
2023-05-24T16:35:23.304Z,99.90
2023-05-24T16:37:51.725Z,99.90
2023-05-24T16:40:19.298Z,99.90
2023-05-24T16:42:49.924Z,99.90
2023-05-24T16:45:17.599Z,99.90
2023-05-24T16:47:45.649Z,99.90
2023-05-24T16:50:15.865Z,99.90
2023-05-24T16:52:44.435Z,99.90
2023-05-24T16:55:12.328Z,99.90
2023-05-24T16:57:40.248Z,99.90
2023-05-24T17:00:08.824Z,99.90
2023-05-24T17:02:36.838Z,99.90
2023-05-24T17:05:04.530Z,99.90
2023-05-24T17:07:32.771Z,99.90
2023-05-24T17:10:00.500Z,99.90
2023-05-24T17:12:29.678Z,99.90
2023-05-24T17:14:57.311Z,99.90
2023-05-24T17:17:25.155Z,99.90
2023-05-24T17:19:53.180Z,99.90
2023-05-24T17:22:21.491Z,99.90
2023-05-24T17:24:48.945Z,99.90
2023-05-24T17:27:19.996Z,99.90
2023-05-24T17:29:49.576Z,99.90
2023-05-24T17:32:17.483Z,99.90
2023-05-24T17:34:45.284Z,99.90
2023-05-24T17:37:13.397Z,99.90
2023-05-24T17:39:41.480Z,99.90
2023-05-24T17:42:09.333Z,99.90
2023-05-24T17:44:36.687Z,99.90
2023-05-24T17:47:04.618Z,99.90
2023-05-24T17:49:32.515Z,99.90
2023-05-24T17:52:00.959Z,99.90
2023-05-24T17:54:28.798Z,99.90
2023-05-24T17:56:56.754Z,99.90
2023-05-24T17:59:24.207Z,99.90
2023-05-24T18:01:52.397Z,99.90
2023-05-24T18:04:19.976Z,99.90
2023-05-24T18:06:47.899Z,99.90
2023-05-24T18:09:16.937Z,99.90
2023-05-24T18:11:44.848Z,99.90
2023-05-24T18:14:12.174Z,99.90
2023-05-24T18:16:40.075Z,99.90
2023-05-24T18:19:07.554Z,99.90
2023-05-24T18:21:35.505Z,99.90
2023-05-24T18:24:03.623Z,99.90
2023-05-24T18:26:31.472Z,99.90
2023-05-24T18:28:58.936Z,99.90
2023-05-24T18:31:26.567Z,99.90
2023-05-24T18:33:54.307Z,99.90
2023-05-24T18:36:22.804Z,99.90
2023-05-24T18:38:50.444Z,99.90
2023-05-24T18:41:19.087Z,99.90
2023-05-24T18:43:46.554Z,99.90
2023-05-24T18:46:15.680Z,99.90
2023-05-24T18:48:43.918Z,99.90
2023-05-24T18:51:13.662Z,99.90
2023-05-24T18:53:41.685Z,99.90
2023-05-24T18:56:10.083Z,99.90
2023-05-24T18:58:37.615Z,99.90
2023-05-24T19:01:05.346Z,99.90
2023-05-24T19:03:35.639Z,99.90
2023-05-24T19:06:03.228Z,99.90
2023-05-24T19:08:30.792Z,99.90
2023-05-24T19:10:59.361Z,99.90
2023-05-24T19:13:27.542Z,99.90
2023-05-24T19:16:00.662Z,99.90
2023-05-24T19:18:28.185Z,99.90
2023-05-24T19:20:55.808Z,99.90
2023-05-24T19:23:23.089Z,99.90
2023-05-24T19:25:51.629Z,99.90
2023-05-24T19:28:19.001Z,99.90
2023-05-24T19:30:46.560Z,99.90
2023-05-24T19:33:14.177Z,99.90
2023-05-24T19:35:42.083Z,99.90
2023-05-24T19:38:10.235Z,99.90
2023-05-24T19:40:38.302Z,99.90
2023-05-24T19:43:06.006Z,99.90
2023-05-24T19:45:33.822Z,99.90
2023-05-24T19:48:01.836Z,99.90
2023-05-24T19:50:31.331Z,99.90
2023-05-24T19:52:59.482Z,99.90
2023-05-24T19:55:27.072Z,99.90
2023-05-24T19:57:54.975Z,99.90
2023-05-24T20:00:22.863Z,99.90
2023-05-24T20:02:50.229Z,99.90
2023-05-24T20:05:18.214Z,99.90
2023-05-24T20:07:45.848Z,99.90
2023-05-24T20:10:14.571Z,99.90
2023-05-24T20:12:42.809Z,99.90
2023-05-24T20:15:15.156Z,99.90
2023-05-24T20:17:45.534Z,99.90
2023-05-24T20:20:15.242Z,99.90
2023-05-24T20:22:42.745Z,99.90
2023-05-24T20:25:10.864Z,99.90
2023-05-24T20:27:42.972Z,99.90
2023-05-24T20:30:12.475Z,99.90
2023-05-24T20:32:40.219Z,99.90
2023-05-24T20:35:08.824Z,99.90
2023-05-24T20:37:36.891Z,99.90
2023-05-24T20:40:05.983Z,99.90
2023-05-24T20:42:34.026Z,99.90
2023-05-24T20:45:03.632Z,99.90
2023-05-24T20:47:31.156Z,99.90
2023-05-24T20:49:58.717Z,99.90
2023-05-24T20:52:26.071Z,99.90
2023-05-24T20:54:53.607Z,99.90
2023-05-24T20:57:20.918Z,99.90
2023-05-24T20:59:48.660Z,99.90
2023-05-24T21:02:16.425Z,99.90
2023-05-24T21:04:44.245Z,99.90
2023-05-24T21:07:11.723Z,99.90
2023-05-24T21:09:39.504Z,99.90
2023-05-24T21:12:07.238Z,99.90
2023-05-24T21:14:34.781Z,99.90
2023-05-24T21:17:02.082Z,99.90
2023-05-24T21:19:29.977Z,99.90
2023-05-24T21:21:57.655Z,99.90
2023-05-24T21:24:25.385Z,99.90
2023-05-24T21:26:52.633Z,99.90
2023-05-24T21:29:20.222Z,99.90
2023-05-24T21:31:48.505Z,99.90
2023-05-24T21:34:16.014Z,99.90
2023-05-24T21:36:43.335Z,99.90
2023-05-24T21:39:10.976Z,99.90
2023-05-24T21:41:38.391Z,99.90
2023-05-24T21:44:08.186Z,99.90
2023-05-24T21:46:36.302Z,99.90
2023-05-24T21:49:03.933Z,99.90
2023-05-24T21:51:31.346Z,99.90
2023-05-24T21:53:58.939Z,99.90
2023-05-24T21:56:27.147Z,99.90
2023-05-24T21:58:55.008Z,99.90
2023-05-24T22:01:22.355Z,99.90
2023-05-24T22:03:50.058Z,99.90
2023-05-24T22:06:17.501Z,99.90
2023-05-24T22:08:45.063Z,99.90
2023-05-24T22:11:12.299Z,99.90
2023-05-24T22:13:40.294Z,99.90
2023-05-24T22:16:10.033Z,99.90
2023-05-24T22:18:37.655Z,99.90
2023-05-24T22:21:05.078Z,99.90
2023-05-24T22:23:32.609Z,99.90
2023-05-24T22:26:00.184Z,99.90
2023-05-24T22:28:28.993Z,99.90
2023-05-24T22:30:57.400Z,99.90
2023-05-24T22:33:25.060Z,99.90
2023-05-24T22:35:52.413Z,99.90
2023-05-24T22:38:19.933Z,99.90
2023-05-24T22:40:47.248Z,99.90
2023-05-24T22:43:14.771Z,99.90
2023-05-24T22:45:42.334Z,99.90
2023-05-24T22:48:10.476Z,99.90
2023-05-24T22:50:38.393Z,99.90
2023-05-24T22:53:06.070Z,99.90
2023-05-24T22:55:33.281Z,99.90
2023-05-24T22:58:01.842Z,99.90
2023-05-24T23:00:29.545Z,99.90
2023-05-24T23:02:57.317Z,99.90
2023-05-24T23:05:24.591Z,99.90
2023-05-24T23:07:52.594Z,99.90
2023-05-24T23:10:19.989Z,99.90
2023-05-24T23:12:47.681Z,99.90
2023-05-24T23:15:16.875Z,99.90
2023-05-24T23:17:44.802Z,99.90
2023-05-24T23:20:14.459Z,99.90
2023-05-24T23:22:42.050Z,99.90
2023-05-24T23:25:09.979Z,99.90
2023-05-24T23:27:37.730Z,99.90
2023-05-24T23:30:05.948Z,99.90
2023-05-24T23:32:33.766Z,99.90
2023-05-24T23:35:01.124Z,99.90
2023-05-24T23:37:28.889Z,99.90
2023-05-24T23:39:56.666Z,99.90
2023-05-24T23:42:24.245Z,99.90
2023-05-24T23:44:51.499Z,99.90
2023-05-24T23:47:19.114Z,99.90
2023-05-24T23:49:46.401Z,99.90
2023-05-24T23:52:15.244Z,99.90
2023-05-24T23:54:42.541Z,99.90
2023-05-24T23:57:10.267Z,99.90
2023-05-24T23:59:37.635Z,99.90
